createdAt,value
2023-05-14T00:01:18.789Z,8.40
2023-05-14T00:03:45.366Z,8.43
2023-05-14T00:06:12.037Z,8.53
2023-05-14T00:08:38.446Z,8.70
2023-05-14T00:11:04.978Z,8.27
2023-05-14T00:13:31.457Z,8.93
2023-05-14T00:15:58.065Z,8.10
2023-05-14T00:18:24.730Z,9.00
2023-05-14T00:20:54.644Z,9.23
2023-05-14T00:23:22.734Z,8.87
2023-05-14T00:25:49.448Z,8.20
2023-05-14T00:28:16.298Z,7.67
2023-05-14T00:30:42.816Z,8.43
2023-05-14T00:33:09.290Z,8.73
2023-05-14T00:35:36.047Z,8.53
2023-05-14T00:38:03.802Z,9.27
2023-05-14T00:40:30.414Z,9.07
2023-05-14T00:42:57.050Z,8.67
2023-05-14T00:45:23.744Z,8.60
2023-05-14T00:47:51.199Z,8.53
2023-05-14T00:50:18.001Z,8.57
2023-05-14T00:52:44.751Z,8.80
2023-05-14T00:55:16.611Z,8.13
2023-05-14T00:57:43.594Z,8.20
2023-05-14T01:00:10.887Z,9.00
2023-05-14T01:02:37.620Z,8.23
2023-05-14T01:05:04.891Z,8.67
2023-05-14T01:08:10.486Z,7.67
2023-05-14T01:10:49.860Z,8.03
2023-05-14T01:13:38.763Z,9.10
2023-05-14T01:16:09.802Z,8.83
2023-05-14T01:18:36.976Z,8.30
2023-05-14T01:21:03.576Z,9.90
2023-05-14T01:23:29.983Z,9.10
2023-05-14T01:25:56.520Z,8.77
2023-05-14T01:28:35.706Z,8.30
2023-05-14T01:31:12.000Z,9.03
2023-05-14T01:33:43.385Z,8.83
2023-05-14T01:36:10.706Z,8.80
2023-05-14T01:38:37.714Z,8.57
2023-05-14T01:41:05.233Z,8.60
2023-05-14T01:43:32.191Z,9.00
2023-05-14T01:45:58.822Z,8.27
2023-05-14T01:48:25.242Z,9.40
2023-05-14T01:50:51.950Z,9.10
2023-05-14T01:53:18.427Z,8.27
2023-05-14T01:55:44.900Z,9.10
2023-05-14T01:58:11.357Z,9.50
2023-05-14T02:00:38.381Z,9.23
2023-05-14T02:03:04.825Z,9.20
2023-05-14T02:05:31.417Z,9.57
2023-05-14T02:07:57.869Z,9.10
2023-05-14T02:10:24.388Z,9.07
2023-05-14T02:12:51.047Z,8.70
2023-05-14T02:15:17.525Z,9.17
2023-05-14T02:17:44.125Z,9.50
2023-05-14T02:20:11.160Z,9.60
2023-05-14T02:22:37.948Z,9.47
2023-05-14T02:25:04.748Z,10.13
2023-05-14T02:27:31.618Z,9.73
2023-05-14T02:30:00.787Z,9.30
2023-05-14T02:32:28.269Z,9.43
2023-05-14T02:34:54.850Z,9.20
2023-05-14T02:37:21.356Z,9.63
2023-05-14T02:39:47.760Z,9.47
2023-05-14T02:42:14.250Z,9.27
2023-05-14T02:44:40.819Z,9.27
2023-05-14T02:47:07.330Z,8.83
2023-05-14T02:49:33.830Z,9.40
2023-05-14T02:52:00.961Z,8.53
2023-05-14T02:54:27.456Z,10.00
2023-05-14T02:56:53.854Z,8.40
2023-05-14T02:59:20.331Z,9.47
2023-05-14T03:01:47.408Z,9.50
2023-05-14T03:04:14.274Z,9.00
2023-05-14T03:06:40.758Z,8.90
2023-05-14T03:09:07.748Z,9.57
2023-05-14T03:11:34.520Z,9.17
2023-05-14T03:14:01.197Z,9.27
2023-05-14T03:16:27.799Z,9.33
2023-05-14T03:18:54.543Z,8.60
2023-05-14T03:21:21.097Z,8.80
2023-05-14T03:23:47.553Z,8.70
2023-05-14T03:26:14.054Z,8.60
2023-05-14T03:28:40.840Z,8.33
2023-05-14T03:31:07.439Z,9.20
2023-05-14T03:33:33.927Z,9.00
2023-05-14T03:36:00.354Z,8.67
2023-05-14T03:38:26.848Z,8.97
2023-05-14T03:40:53.428Z,8.30
2023-05-14T03:43:19.835Z,9.43
2023-05-14T03:45:46.409Z,9.73
2023-05-14T03:48:13.017Z,8.53
2023-05-14T03:50:39.583Z,9.00
2023-05-14T03:53:06.203Z,9.23
2023-05-14T03:55:32.781Z,8.27
2023-05-14T03:57:59.275Z,9.00
2023-05-14T04:00:25.961Z,8.80
2023-05-14T04:02:52.932Z,8.00
2023-05-14T04:05:19.532Z,8.50
2023-05-14T04:07:46.378Z,8.50
2023-05-14T04:10:13.829Z,9.37
2023-05-14T04:12:40.298Z,8.70
2023-05-14T04:15:07.394Z,9.07
2023-05-14T04:17:34.934Z,9.23
2023-05-14T04:20:01.881Z,8.80
2023-05-14T04:22:28.337Z,8.97
2023-05-14T04:24:54.761Z,8.70
2023-05-14T04:27:22.261Z,9.33
2023-05-14T04:29:51.777Z,8.90
2023-05-14T04:32:18.416Z,8.23
2023-05-14T04:34:45.074Z,8.83
2023-05-14T04:37:11.544Z,9.03
2023-05-14T04:39:38.427Z,9.50
2023-05-14T04:42:06.616Z,9.37
2023-05-14T04:44:34.821Z,8.80
2023-05-14T04:47:02.113Z,9.43
2023-05-14T04:49:29.092Z,9.33
2023-05-14T04:51:56.463Z,9.83
2023-05-14T04:54:22.992Z,8.50
2023-05-14T04:56:50.753Z,9.50
2023-05-14T04:59:17.270Z,9.30
2023-05-14T05:01:43.783Z,9.43
2023-05-14T05:04:10.540Z,9.10
2023-05-14T05:06:37.112Z,8.97
2023-05-14T05:09:03.698Z,8.17
2023-05-14T05:11:30.314Z,8.97
2023-05-14T05:13:56.779Z,8.67
2023-05-14T05:16:23.318Z,8.40
2023-05-14T05:18:49.902Z,9.43
2023-05-14T05:21:16.552Z,9.07
2023-05-14T05:23:42.996Z,9.43
2023-05-14T05:26:09.593Z,8.90
2023-05-14T05:28:36.194Z,9.03
2023-05-14T05:31:02.944Z,9.17
2023-05-14T05:33:29.560Z,9.23
2023-05-14T05:35:56.041Z,9.40
2023-05-14T05:38:22.481Z,9.17
2023-05-14T05:40:49.124Z,9.47
2023-05-14T05:43:15.713Z,9.27
2023-05-14T05:45:42.142Z,9.70
2023-05-14T05:48:08.654Z,9.70
2023-05-14T05:50:35.136Z,9.23
2023-05-14T05:53:01.791Z,8.07
2023-05-14T05:55:29.354Z,8.77
2023-05-14T05:57:56.162Z,8.83
2023-05-14T06:00:23.858Z,8.17
2023-05-14T06:02:50.546Z,8.63
2023-05-14T06:05:17.045Z,8.33
2023-05-14T06:07:43.568Z,8.83
2023-05-14T06:10:10.454Z,9.07
2023-05-14T06:12:36.852Z,9.27
2023-05-14T06:15:03.557Z,9.23
2023-05-14T06:17:30.028Z,9.23
2023-05-14T06:19:56.471Z,8.13
2023-05-14T06:22:22.922Z,8.93
2023-05-14T06:24:49.441Z,8.47
2023-05-14T06:27:15.868Z,7.77
2023-05-14T06:29:42.457Z,8.67
2023-05-14T06:32:09.243Z,8.70
2023-05-14T06:34:35.697Z,7.63
2023-05-14T06:37:04.164Z,8.60
2023-05-14T06:39:30.905Z,8.10
2023-05-14T06:41:57.294Z,8.93
2023-05-14T06:44:23.858Z,8.43
2023-05-14T06:46:50.273Z,7.73
2023-05-14T06:49:16.878Z,8.60
2023-05-14T06:51:43.406Z,8.33
2023-05-14T06:54:10.022Z,8.47
2023-05-14T06:56:36.510Z,8.20
2023-05-14T06:59:03.075Z,7.63
2023-05-14T07:01:30.445Z,8.17
2023-05-14T07:03:57.315Z,7.80
2023-05-14T07:06:23.969Z,8.10
2023-05-14T07:08:50.434Z,10.87
2023-05-14T07:11:16.949Z,8.53
2023-05-14T07:13:43.475Z,8.40
2023-05-14T07:16:10.360Z,8.67
2023-05-14T07:18:37.005Z,8.20
2023-05-14T07:21:06.428Z,8.20
2023-05-14T07:23:36.142Z,8.27
2023-05-14T07:26:03.311Z,8.03
2023-05-14T07:28:29.782Z,7.90
2023-05-14T07:30:56.264Z,7.97
2023-05-14T07:33:23.349Z,8.27
2023-05-14T07:35:50.306Z,8.57
2023-05-14T07:38:17.084Z,9.07
2023-05-14T07:40:43.669Z,7.67
2023-05-14T07:43:10.564Z,8.03
2023-05-14T07:45:37.948Z,7.70
2023-05-14T07:48:04.700Z,8.13
2023-05-14T07:50:31.456Z,7.90
2023-05-14T07:52:57.887Z,7.53
2023-05-14T07:55:24.333Z,8.93
2023-05-14T07:57:50.978Z,8.73
2023-05-14T08:00:18.043Z,8.80
2023-05-14T08:02:44.639Z,7.77
2023-05-14T08:05:11.561Z,7.83
2023-05-14T08:07:38.096Z,7.57
2023-05-14T08:10:04.882Z,7.50
2023-05-14T08:12:31.792Z,7.20
2023-05-14T08:14:58.264Z,6.90
2023-05-14T08:17:24.828Z,7.33
2023-05-14T08:19:51.348Z,8.40
2023-05-14T08:22:17.825Z,8.17
2023-05-14T08:24:44.355Z,6.80
2023-05-14T08:27:10.806Z,7.57
2023-05-14T08:29:37.327Z,7.13
2023-05-14T08:32:15.587Z,8.10
2023-05-14T08:34:48.977Z,7.17
2023-05-14T08:37:15.483Z,7.00
2023-05-14T08:39:41.970Z,7.20
2023-05-14T08:42:12.376Z,7.10
2023-05-14T08:44:45.789Z,6.87
2023-05-14T08:47:15.506Z,7.20
2023-05-14T08:49:44.890Z,7.27
2023-05-14T08:52:12.229Z,6.40
2023-05-14T08:54:40.358Z,6.30
2023-05-14T08:57:09.987Z,6.70
2023-05-14T08:59:36.764Z,6.40
2023-05-14T09:02:06.300Z,6.07
2023-05-14T09:04:34.651Z,6.10
2023-05-14T09:07:02.707Z,5.87
2023-05-14T09:09:29.911Z,5.93
2023-05-14T09:11:56.406Z,6.17
2023-05-14T09:14:23.961Z,6.27
2023-05-14T09:16:51.737Z,5.93
2023-05-14T09:19:19.454Z,6.10
2023-05-14T09:21:47.088Z,6.57
2023-05-14T09:24:25.486Z,6.17
2023-05-14T09:26:53.892Z,5.90
2023-05-14T09:29:20.795Z,5.77
2023-05-14T09:31:51.057Z,5.97
2023-05-14T09:34:28.860Z,6.07
2023-05-14T09:37:03.516Z,5.20
2023-05-14T09:39:31.162Z,5.50
2023-05-14T09:41:57.687Z,6.27
2023-05-14T09:44:24.984Z,5.70
2023-05-14T09:46:52.593Z,6.20
2023-05-14T09:49:19.710Z,6.03
2023-05-14T09:51:46.697Z,5.73
2023-05-14T09:54:13.147Z,6.47
2023-05-14T09:56:39.708Z,5.33
2023-05-14T09:59:06.387Z,5.70
2023-05-14T10:01:33.478Z,6.40
2023-05-14T10:04:00.728Z,6.80
2023-05-14T10:06:30.486Z,6.30
2023-05-14T10:08:59.135Z,6.77
2023-05-14T10:11:30.920Z,6.97
2023-05-14T10:14:20.795Z,5.17
2023-05-14T10:16:53.632Z,6.13
2023-05-14T10:19:24.671Z,5.70
2023-05-14T10:22:04.210Z,6.37
2023-05-14T10:24:31.884Z,6.20
2023-05-14T10:26:58.863Z,6.17
2023-05-14T10:29:36.212Z,6.63
2023-05-14T10:32:07.191Z,6.27
2023-05-14T10:34:38.320Z,6.13
2023-05-14T10:37:07.559Z,6.10
2023-05-14T10:39:50.819Z,6.20
2023-05-14T10:42:24.377Z,6.10
2023-05-14T10:44:58.543Z,5.87
2023-05-14T10:47:29.182Z,5.77
2023-05-14T10:49:58.549Z,6.40
2023-05-14T10:52:26.400Z,5.53
2023-05-14T10:54:55.016Z,5.27
2023-05-14T10:57:23.120Z,5.47
2023-05-14T10:59:54.724Z,5.30
2023-05-14T11:02:32.467Z,5.40
2023-05-14T11:05:03.861Z,4.83
2023-05-14T11:07:35.302Z,5.73
2023-05-14T11:10:13.812Z,6.60
2023-05-14T11:12:42.194Z,5.73
2023-05-14T11:15:11.898Z,5.13
2023-05-14T11:17:41.004Z,4.97
2023-05-14T11:20:08.856Z,5.50
2023-05-14T11:22:36.608Z,5.37
2023-05-14T11:25:03.822Z,4.67
2023-05-14T11:27:32.179Z,6.03
2023-05-14T11:30:00.898Z,6.53
2023-05-14T11:32:27.813Z,5.83
2023-05-14T11:34:54.628Z,4.87
2023-05-14T11:37:21.133Z,4.40
2023-05-14T11:39:53.562Z,5.37
2023-05-14T11:42:21.284Z,4.17
2023-05-14T11:44:49.526Z,3.50
2023-05-14T11:47:18.613Z,4.20
2023-05-14T11:49:45.765Z,3.97
2023-05-14T11:52:14.777Z,4.37
2023-05-14T11:54:42.812Z,4.33
2023-05-14T11:57:17.857Z,3.80
2023-05-14T11:59:44.640Z,3.83
2023-05-14T12:02:13.222Z,3.90
2023-05-14T12:04:40.384Z,3.70
2023-05-14T12:07:15.276Z,3.70
2023-05-14T12:09:50.913Z,4.50
2023-05-14T12:12:22.398Z,4.40
2023-05-14T12:14:50.356Z,4.10
2023-05-14T12:17:21.821Z,4.60
2023-05-14T12:19:50.389Z,4.17
2023-05-14T12:22:19.560Z,4.77
2023-05-14T12:24:57.804Z,4.03
2023-05-14T12:27:28.421Z,4.27
2023-05-14T12:32:37.836Z,4.13
2023-05-14T12:35:04.723Z,3.90
2023-05-14T12:37:31.371Z,3.33
2023-05-14T12:39:57.889Z,3.90
2023-05-14T12:42:24.361Z,4.10
2023-05-14T12:44:51.047Z,3.80
2023-05-14T12:47:17.536Z,3.93
2023-05-14T12:49:44.021Z,4.00
2023-05-14T12:54:42.895Z,4.03
2023-05-14T12:57:09.495Z,4.20
2023-05-14T12:59:36.007Z,3.70
2023-05-14T13:02:02.593Z,3.33
2023-05-14T13:04:29.170Z,3.07
2023-05-14T13:06:56.012Z,3.20
2023-05-14T13:09:22.442Z,3.07
2023-05-14T13:11:48.917Z,3.47
2023-05-14T13:14:15.606Z,3.13
2023-05-14T13:16:43.320Z,3.30
2023-05-14T13:19:09.862Z,3.37
2023-05-14T13:21:36.507Z,2.47
2023-05-14T13:24:03.186Z,3.07
2023-05-14T13:26:29.799Z,2.80
2023-05-14T13:28:56.270Z,2.70
2023-05-14T13:31:22.761Z,2.87
2023-05-14T13:33:49.196Z,3.23
2023-05-14T13:36:16.477Z,2.70
2023-05-14T13:38:43.096Z,3.13
2023-05-14T13:41:09.607Z,2.80
2023-05-14T13:43:36.187Z,3.73
2023-05-14T13:46:04.850Z,2.77
2023-05-14T13:48:31.714Z,2.97
2023-05-14T13:50:58.362Z,3.10
2023-05-14T13:53:25.699Z,3.00
2023-05-14T13:55:58.232Z,2.93
2023-05-14T13:58:25.366Z,3.20
2023-05-14T14:00:52.984Z,2.93
2023-05-14T14:03:19.706Z,2.90
2023-05-14T14:05:46.294Z,2.70
2023-05-14T14:08:23.422Z,3.77
2023-05-14T14:10:51.216Z,3.37
2023-05-14T14:13:17.622Z,2.97
2023-05-14T14:15:44.367Z,3.20
2023-05-14T14:18:11.026Z,3.13
2023-05-14T14:20:37.573Z,2.70
2023-05-14T14:23:04.199Z,2.80
2023-05-14T14:25:30.673Z,2.97
2023-05-14T14:27:57.152Z,3.00
2023-05-14T14:30:23.660Z,2.80
2023-05-14T14:32:50.872Z,2.80
2023-05-14T14:35:19.166Z,3.00
2023-05-14T14:37:49.268Z,3.10
2023-05-14T14:40:17.182Z,2.93
2023-05-14T14:42:44.289Z,2.87
2023-05-14T14:45:11.834Z,2.53
2023-05-14T14:47:38.461Z,2.90
2023-05-14T14:50:06.140Z,3.20
2023-05-14T14:52:32.675Z,3.13
2023-05-14T14:54:59.119Z,2.77
2023-05-14T14:57:26.710Z,3.23
2023-05-14T14:59:53.219Z,3.10
2023-05-14T15:02:19.922Z,3.90
2023-05-14T15:04:46.492Z,3.13
2023-05-14T15:07:13.069Z,3.00
2023-05-14T15:09:39.491Z,3.30
2023-05-14T15:12:06.454Z,3.07
2023-05-14T15:14:33.173Z,3.50
2023-05-14T15:16:59.692Z,3.17
2023-05-14T15:19:26.173Z,3.20
2023-05-14T15:21:52.936Z,3.20
2023-05-14T15:24:19.367Z,2.90
2023-05-14T15:26:45.973Z,3.33
2023-05-14T15:29:12.448Z,3.83
2023-05-14T15:31:38.907Z,3.47
2023-05-14T15:34:05.453Z,3.53
2023-05-14T15:36:32.278Z,3.53
2023-05-14T15:38:59.563Z,3.73
2023-05-14T15:41:28.616Z,3.13
2023-05-14T15:43:57.426Z,3.50
2023-05-14T15:46:24.156Z,3.53
2023-05-14T15:48:50.654Z,3.30
2023-05-14T15:51:17.193Z,3.50
2023-05-14T15:53:43.753Z,3.40
2023-05-14T15:56:10.216Z,3.40
2023-05-14T15:58:36.841Z,3.47
2023-05-14T16:01:03.347Z,3.00
2023-05-14T16:03:29.955Z,3.80
2023-05-14T16:05:56.781Z,3.77
2023-05-14T16:08:23.170Z,4.23
2023-05-14T16:10:49.555Z,4.67
2023-05-14T16:13:15.999Z,4.07
2023-05-14T16:15:42.468Z,4.83
2023-05-14T16:18:08.984Z,4.40
2023-05-14T16:20:35.496Z,4.20
2023-05-14T16:23:01.914Z,4.17
2023-05-14T16:25:30.855Z,4.30
2023-05-14T16:27:57.450Z,4.40
2023-05-14T16:30:24.334Z,4.43
2023-05-14T16:32:51.102Z,4.57
2023-05-14T16:35:17.553Z,4.50
2023-05-14T16:37:44.069Z,5.23
2023-05-14T16:40:11.753Z,5.10
2023-05-14T16:42:38.735Z,4.20
2023-05-14T16:45:05.593Z,4.30
2023-05-14T16:47:32.089Z,4.97
2023-05-14T16:49:58.592Z,6.83
2023-05-14T16:52:25.194Z,5.60
2023-05-14T16:54:51.660Z,4.93
2023-05-14T16:57:18.192Z,4.80
2023-05-14T16:59:44.731Z,5.20
2023-05-14T17:02:11.152Z,5.43
2023-05-14T17:04:40.950Z,5.63
2023-05-14T17:07:07.627Z,4.90
2023-05-14T17:09:34.101Z,5.40
2023-05-14T17:12:01.123Z,5.33
2023-05-14T17:14:27.563Z,5.30
2023-05-14T17:16:54.414Z,4.20
2023-05-14T17:19:21.063Z,5.00
2023-05-14T17:21:47.577Z,5.60
2023-05-14T17:24:14.003Z,5.63
2023-05-14T17:26:40.593Z,5.43
2023-05-14T17:29:07.030Z,5.40
2023-05-14T17:31:33.474Z,5.70
2023-05-14T17:33:59.973Z,6.07
2023-05-14T17:36:28.493Z,5.93
2023-05-14T17:38:55.149Z,5.07
2023-05-14T17:41:21.627Z,5.90
2023-05-14T17:43:48.204Z,6.00
2023-05-14T17:46:14.701Z,5.70
2023-05-14T17:48:41.263Z,6.03
2023-05-14T17:51:07.811Z,6.10
2023-05-14T17:53:34.224Z,5.67
2023-05-14T17:56:00.905Z,5.57
2023-05-14T17:58:27.550Z,5.83
2023-05-14T18:00:54.097Z,5.97
2023-05-14T18:03:20.634Z,6.07
2023-05-14T18:05:47.317Z,6.23
2023-05-14T18:08:14.614Z,6.40
2023-05-14T18:10:41.099Z,6.13
2023-05-14T18:13:07.687Z,6.13
2023-05-14T18:15:38.730Z,5.73
2023-05-14T18:18:05.592Z,5.83
2023-05-14T18:20:33.384Z,4.73
2023-05-14T18:23:01.238Z,6.03
2023-05-14T18:25:27.794Z,6.07
2023-05-14T18:27:54.524Z,6.97
2023-05-14T18:30:21.050Z,6.90
2023-05-14T18:32:47.566Z,6.93
2023-05-14T18:35:14.362Z,6.80
2023-05-14T18:37:41.256Z,7.57
2023-05-14T18:40:08.708Z,6.90
2023-05-14T18:42:35.393Z,6.97
2023-05-14T18:45:02.285Z,7.03
2023-05-14T18:47:29.340Z,7.40
2023-05-14T18:49:58.155Z,7.77
2023-05-14T18:52:26.174Z,6.67
2023-05-14T18:54:53.675Z,7.23
2023-05-14T18:57:20.891Z,7.27
2023-05-14T18:59:47.296Z,7.80
2023-05-14T19:02:13.764Z,7.20
2023-05-14T19:04:51.149Z,7.23
2023-05-14T19:07:19.543Z,6.57
2023-05-14T19:09:46.126Z,6.27
2023-05-14T19:12:12.899Z,6.77
2023-05-14T19:14:39.414Z,6.50
2023-05-14T19:17:05.991Z,5.53
2023-05-14T19:19:32.671Z,5.87
2023-05-14T19:21:59.139Z,5.47
2023-05-14T19:24:25.851Z,5.70
2023-05-14T19:26:52.597Z,5.43
2023-05-14T19:29:19.160Z,5.37
2023-05-14T19:31:45.980Z,5.43
2023-05-14T19:34:12.673Z,5.27
2023-05-14T19:36:39.227Z,5.63
2023-05-14T19:39:05.974Z,5.10
2023-05-14T19:41:32.550Z,5.77
2023-05-14T19:43:58.966Z,5.13
2023-05-14T19:46:26.200Z,5.10
2023-05-14T19:48:52.710Z,5.93
2023-05-14T19:51:19.228Z,5.60
2023-05-14T19:53:45.741Z,4.60
2023-05-14T19:56:12.374Z,4.90
2023-05-14T19:58:38.800Z,5.70
2023-05-14T20:01:05.277Z,6.07
2023-05-14T20:03:32.217Z,5.87
2023-05-14T20:05:58.878Z,5.63
2023-05-14T20:08:25.366Z,5.40
2023-05-14T20:10:52.058Z,5.93
2023-05-14T20:13:18.597Z,5.10
2023-05-14T20:15:45.302Z,5.40
2023-05-14T20:18:11.774Z,5.63
2023-05-14T20:20:39.393Z,5.73
2023-05-14T20:23:06.452Z,5.70
2023-05-14T20:25:33.284Z,6.37
2023-05-14T20:28:02.561Z,6.07
2023-05-14T20:30:29.138Z,5.77
2023-05-14T20:32:55.843Z,6.20
2023-05-14T20:35:22.342Z,6.63
2023-05-14T20:37:49.535Z,5.97
2023-05-14T20:40:16.201Z,6.37
2023-05-14T20:42:42.907Z,6.50
2023-05-14T20:45:10.658Z,6.63
2023-05-14T20:47:37.360Z,6.50
2023-05-14T20:50:04.801Z,6.50
2023-05-14T20:52:31.271Z,5.93
2023-05-14T20:54:59.455Z,6.13
2023-05-14T20:57:28.291Z,6.23
2023-05-14T20:59:54.851Z,6.60
2023-05-14T21:02:21.545Z,6.33
2023-05-14T21:04:48.274Z,5.97
2023-05-14T21:07:14.801Z,7.10
2023-05-14T21:09:41.388Z,6.33
2023-05-14T21:12:08.332Z,8.00
2023-05-14T21:14:34.765Z,6.53
2023-05-14T21:17:01.241Z,6.07
2023-05-14T21:19:27.880Z,6.47
2023-05-14T21:21:54.759Z,6.53
2023-05-14T21:24:21.214Z,6.27
2023-05-14T21:26:47.704Z,6.47
2023-05-14T21:29:14.178Z,6.47
2023-05-14T21:31:40.992Z,7.73
2023-05-14T21:34:07.620Z,6.37
2023-05-14T21:36:34.200Z,7.27
2023-05-14T21:39:00.722Z,6.90
2023-05-14T21:41:27.191Z,7.03
2023-05-14T21:43:53.847Z,6.63
2023-05-14T21:46:20.492Z,7.13
2023-05-14T21:48:47.092Z,6.87
2023-05-14T21:51:13.770Z,6.37
2023-05-14T21:53:40.209Z,6.60
2023-05-14T21:56:08.095Z,7.03
2023-05-14T21:58:35.328Z,6.80
2023-05-14T22:01:01.797Z,6.47
2023-05-14T22:03:28.321Z,6.73
2023-05-14T22:05:54.897Z,6.63
2023-05-14T22:08:21.512Z,6.57
2023-05-14T22:10:48.083Z,6.90
2023-05-14T22:13:14.807Z,6.47
2023-05-14T22:15:41.476Z,6.87
2023-05-14T22:18:08.053Z,7.07
2023-05-14T22:20:34.620Z,6.87
2023-05-14T22:23:01.255Z,6.50
2023-05-14T22:25:27.883Z,7.53
2023-05-14T22:27:54.587Z,7.47
2023-05-14T22:30:21.341Z,7.43
2023-05-14T22:32:47.981Z,7.27
2023-05-14T22:35:14.506Z,7.03
2023-05-14T22:37:41.098Z,7.63
2023-05-14T22:40:09.124Z,7.27
2023-05-14T22:42:35.851Z,7.23
2023-05-14T22:45:02.424Z,7.97
2023-05-14T22:47:29.115Z,7.83
2023-05-14T22:49:55.688Z,7.77
2023-05-14T22:52:22.105Z,7.77
2023-05-14T22:54:51.031Z,7.50
2023-05-14T22:57:18.302Z,7.17
2023-05-14T22:59:44.732Z,7.20
2023-05-14T23:02:11.348Z,7.40
2023-05-14T23:04:37.820Z,7.43
2023-05-14T23:07:04.495Z,7.47
2023-05-14T23:09:30.921Z,6.77
2023-05-14T23:11:58.590Z,7.10
2023-05-14T23:14:25.139Z,8.43
2023-05-14T23:16:51.673Z,6.97
2023-05-14T23:19:18.348Z,8.07
2023-05-14T23:21:44.897Z,7.13
2023-05-14T23:24:11.273Z,7.70
2023-05-14T23:26:37.812Z,8.20
2023-05-14T23:29:04.309Z,7.10
2023-05-14T23:31:30.800Z,6.83
2023-05-14T23:33:57.355Z,7.30
2023-05-14T23:36:24.001Z,7.53
2023-05-14T23:38:50.908Z,7.70
2023-05-14T23:41:17.397Z,7.47
2023-05-14T23:43:43.836Z,6.97
2023-05-14T23:46:10.528Z,7.27
2023-05-14T23:48:37.118Z,7.67
2023-05-14T23:51:03.722Z,7.77
2023-05-14T23:53:30.205Z,7.33
2023-05-14T23:55:56.713Z,7.20
2023-05-14T23:58:23.291Z,7.27
